Time;durP1;ratioP1;P1;durP2;ratioP2;P2;SDS_P1;SDS_P2;PMS_P1;PMS_P2;Temp;Humidity;BMP_temperature;BMP_pressure;BME280_temperature;BME280_humidity;BME280_pressure;Samples;Min_cycle;Max_cycle;Signal;HPM_P1;HPM_P2
2021/09/16 00:00:21;;;;;;;10.80;10.13;;;16.90;99.90;;;;;;5051796;28;20444;-59
2021/09/16 00:02:47;;;;;;;10.63;10.23;;;16.80;99.90;;;;;;5051261;28;20444;-61
2021/09/16 00:05:14;;;;;;;11.20;10.70;;;16.70;99.90;;;;;;5051173;28;20460;-61
2021/09/16 00:07:41;;;;;;;11.40;10.80;;;16.70;99.90;;;;;;5051189;28;20448;-62
2021/09/16 00:10:11;;;;;;;11.50;10.90;;;16.60;99.90;;;;;;5051620;28;20930;-58
2021/09/16 00:12:37;;;;;;;11.70;10.60;;;16.50;99.90;;;;;;5050871;28;20451;-63
2021/09/16 00:15:05;;;;;;;10.50;10.20;;;16.40;99.90;;;;;;5051222;28;20523;-62
2021/09/16 00:17:32;;;;;;;11.37;10.60;;;16.40;99.90;;;;;;5051463;28;20440;-61
2021/09/16 00:19:59;;;;;;;10.97;10.17;;;16.30;99.90;;;;;;5051459;28;20452;-60
2021/09/16 00:22:26;;;;;;;10.93;10.20;;;16.30;99.90;;;;;;5051160;28;20451;-61
2021/09/16 00:24:52;;;;;;;10.43;10.13;;;16.20;99.90;;;;;;5051270;28;20456;-60
2021/09/16 00:27:20;;;;;;;10.87;10.40;;;16.10;99.90;;;;;;5051620;28;20625;-59
2021/09/16 00:29:47;;;;;;;10.30;10.00;;;16.00;99.90;;;;;;5051475;28;20985;-62
2021/09/16 00:32:14;;;;;;;10.77;10.20;;;16.00;99.90;;;;;;5051053;28;20456;-62
2021/09/16 00:34:40;;;;;;;10.27;9.97;;;15.90;99.90;;;;;;5050878;28;20484;-60
2021/09/16 00:37:07;;;;;;;10.53;10.03;;;15.90;99.90;;;;;;5051379;28;20444;-61
2021/09/16 00:39:34;;;;;;;11.13;10.40;;;15.80;99.90;;;;;;5051309;28;20468;-62
2021/09/16 00:42:01;;;;;;;10.87;10.30;;;15.70;99.90;;;;;;5050909;28;20444;-59
2021/09/16 00:44:29;;;;;;;10.97;10.43;;;15.70;99.90;;;;;;5051238;28;20465;-61
2021/09/16 00:46:55;;;;;;;10.80;10.30;;;15.60;99.90;;;;;;5051197;28;20463;-60
2021/09/16 00:49:22;;;;;;;10.83;10.20;;;15.60;99.90;;;;;;5051143;28;20933;-62
2021/09/16 00:51:49;;;;;;;10.50;10.10;;;15.60;99.90;;;;;;5050739;28;20448;-62
2021/09/16 00:54:18;;;;;;;10.67;10.13;;;15.50;99.90;;;;;;5051044;28;20515;-61
2021/09/16 00:56:47;;;;;;;10.60;10.20;;;15.50;99.90;;;;;;5051230;28;20510;-62
2021/09/16 00:59:17;;;;;;;10.67;10.10;;;15.50;99.90;;;;;;5051146;28;20562;-61
2021/09/16 01:01:45;;;;;;;10.40;9.70;;;15.40;99.90;;;;;;5050652;28;20453;-59
2021/09/16 01:04:12;;;;;;;9.90;9.53;;;15.40;99.90;;;;;;5050599;28;20444;-59
2021/09/16 01:06:39;;;;;;;10.10;9.80;;;15.30;99.90;;;;;;5051129;28;20444;-63
2021/09/16 01:09:06;;;;;;;9.97;9.27;;;15.30;99.90;;;;;;5054668;28;20459;-61
2021/09/16 01:11:32;;;;;;;10.17;9.60;;;15.20;99.90;;;;;;5054440;28;20444;-61
2021/09/16 01:13:59;;;;;;;10.10;9.60;;;15.20;99.90;;;;;;5054690;28;20480;-63
2021/09/16 01:16:26;;;;;;;9.87;9.47;;;15.10;99.90;;;;;;5054652;28;20455;-60
2021/09/16 01:18:54;;;;;;;11.23;10.67;;;14.90;99.90;;;;;;5054332;28;20541;-60
2021/09/16 01:21:22;;;;;;;9.93;9.53;;;14.80;99.90;;;;;;5054573;28;20456;-61
2021/09/16 01:23:50;;;;;;;9.70;9.40;;;14.70;99.90;;;;;;5054613;28;20488;-60
2021/09/16 01:26:17;;;;;;;9.63;9.17;;;14.60;99.90;;;;;;5054446;28;20471;-60
2021/09/16 01:28:44;;;;;;;10.73;10.03;;;14.50;99.90;;;;;;5054371;28;20807;-61
2021/09/16 01:31:11;;;;;;;10.03;9.40;;;14.40;99.90;;;;;;5054283;28;20451;-60
2021/09/16 01:33:38;;;;;;;9.53;9.07;;;14.30;99.90;;;;;;5054355;28;20854;-61
2021/09/16 01:36:09;;;;;;;9.47;9.17;;;14.30;99.90;;;;;;5054447;28;20474;-61
2021/09/16 01:38:36;;;;;;;9.33;8.93;;;14.20;99.90;;;;;;5054160;28;20820;-62
2021/09/16 01:41:04;;;;;;;8.90;8.50;;;14.10;99.90;;;;;;5054176;28;20452;-61
2021/09/16 01:43:31;;;;;;;9.17;8.57;;;14.10;99.90;;;;;;5054145;28;20456;-62
2021/09/16 01:45:57;;;;;;;9.10;8.33;;;14.00;99.90;;;;;;5053597;28;20460;-61
2021/09/16 01:48:24;;;;;;;9.10;8.50;;;14.00;99.90;;;;;;5054266;28;20443;-59
2021/09/16 01:50:51;;;;;;;10.13;8.93;;;14.00;99.90;;;;;;5054121;28;20444;-62
2021/09/16 01:53:17;;;;;;;8.73;8.37;;;14.00;99.90;;;;;;5053891;28;20440;-61
2021/09/16 01:55:44;;;;;;;11.00;8.27;;;14.00;99.90;;;;;;5053691;28;20888;-60
2021/09/16 01:58:12;;;;;;;8.70;8.07;;;14.00;99.90;;;;;;5054011;28;20444;-62
2021/09/16 02:00:39;;;;;;;9.00;8.50;;;14.00;99.90;;;;;;5053979;28;20451;-62
2021/09/16 02:03:05;;;;;;;8.57;8.00;;;14.00;99.90;;;;;;5053568;28;20444;-60
2021/09/16 02:05:32;;;;;;;8.27;7.93;;;14.00;99.90;;;;;;5053505;28;20993;-60
2021/09/16 02:07:59;;;;;;;7.80;7.50;;;13.90;99.90;;;;;;5053731;28;20864;-60
2021/09/16 02:10:25;;;;;;;8.63;8.30;;;13.90;99.90;;;;;;5053873;28;20439;-62
2021/09/16 02:12:52;;;;;;;9.37;8.40;;;13.80;99.90;;;;;;5053420;28;20444;-61
2021/09/16 02:15:20;;;;;;;8.10;7.70;;;13.80;99.90;;;;;;5053178;28;20993;-61
2021/09/16 02:17:47;;;;;;;7.87;7.47;;;13.70;99.90;;;;;;5053427;28;20868;-61
2021/09/16 02:20:14;;;;;;;7.93;7.30;;;13.70;99.90;;;;;;5053520;28;20448;-61
2021/09/16 02:22:40;;;;;;;8.47;7.53;;;13.70;99.90;;;;;;5053012;28;20444;-60
2021/09/16 02:25:08;;;;;;;7.03;6.80;;;13.60;99.90;;;;;;5053558;28;20473;-62
2021/09/16 02:27:34;;;;;;;7.63;7.23;;;13.60;99.90;;;;;;5053444;28;20447;-62
2021/09/16 02:30:01;;;;;;;7.60;7.00;;;13.50;99.90;;;;;;5053332;28;20455;-58
2021/09/16 02:32:29;;;;;;;7.53;7.03;;;13.50;99.90;;;;;;5052856;28;20445;-60
2021/09/16 02:34:56;;;;;;;8.37;7.70;;;13.50;99.90;;;;;;5053193;28;20480;-60
2021/09/16 02:37:23;;;;;;;8.30;6.57;;;13.50;99.90;;;;;;5053328;28;20934;-61
2021/09/16 02:39:49;;;;;;;6.77;6.17;;;13.50;99.90;;;;;;5052817;28;20453;-62
2021/09/16 02:42:16;;;;;;;5.40;5.10;;;13.40;99.90;;;;;;5052961;28;20444;-60
2021/09/16 02:44:43;;;;;;;7.13;5.50;;;13.40;99.90;;;;;;5052896;28;20503;-62
2021/09/16 02:47:10;;;;;;;6.37;6.07;;;13.40;99.90;;;;;;5053033;28;20493;-59
2021/09/16 02:49:38;;;;;;;5.13;4.93;;;13.40;99.90;;;;;;5053009;28;20460;-63
2021/09/16 02:52:05;;;;;;;6.20;5.80;;;13.40;99.90;;;;;;5052449;28;20448;-62
2021/09/16 02:54:32;;;;;;;5.00;4.70;;;13.40;99.90;;;;;;5052795;28;20487;-61
2021/09/16 02:56:59;;;;;;;5.60;5.07;;;13.30;99.90;;;;;;5052993;28;20449;-62
2021/09/16 02:59:25;;;;;;;6.47;5.80;;;13.30;99.90;;;;;;5052817;28;20444;-60
2021/09/16 03:01:52;;;;;;;5.43;4.93;;;13.20;99.90;;;;;;5052323;28;20448;-60
2021/09/16 03:04:19;;;;;;;5.10;4.70;;;13.30;99.90;;;;;;5052778;28;20451;-61
2021/09/16 03:06:47;;;;;;;5.67;4.63;;;13.20;99.90;;;;;;5052719;28;20447;-60
2021/09/16 03:09:14;;;;;;;8.40;5.83;;;13.20;99.90;;;;;;5052808;28;20667;-60
2021/09/16 03:11:40;;;;;;;6.43;5.63;;;13.20;99.90;;;;;;5051894;28;20448;-61
2021/09/16 03:14:07;;;;;;;5.60;5.10;;;13.10;99.90;;;;;;5052334;28;20448;-62
2021/09/16 03:16:34;;;;;;;4.73;4.33;;;13.10;99.90;;;;;;5052477;28;20814;-62
2021/09/16 03:19:00;;;;;;;5.10;4.60;;;13.10;99.90;;;;;;5052376;28;20849;-62
2021/09/16 03:21:27;;;;;;;5.53;4.63;;;13.20;99.90;;;;;;5051872;28;20861;-62
2021/09/16 03:23:55;;;;;;;10.30;4.33;;;13.20;99.90;;;;;;5052390;28;20514;-62
2021/09/16 03:26:22;;;;;;;8.70;6.40;;;13.20;99.90;;;;;;5052267;28;20467;-62
2021/09/16 03:28:48;;;;;;;13.93;4.60;;;13.20;99.90;;;;;;5052275;28;20444;-60
2021/09/16 03:31:15;;;;;;;9.07;5.93;;;13.20;99.90;;;;;;5051233;28;20455;-62
2021/09/16 03:33:42;;;;;;;11.80;4.43;;;13.20;99.90;;;;;;5052266;28;20478;-61
2021/09/16 03:36:09;;;;;;;7.53;4.23;;;13.20;99.90;;;;;;5052060;28;20488;-62
2021/09/16 03:38:36;;;;;;;5.70;5.20;;;13.20;99.90;;;;;;5052082;28;20448;-62
2021/09/16 03:41:04;;;;;;;7.60;4.87;;;13.20;99.90;;;;;;5051559;28;20440;-62
2021/09/16 03:43:30;;;;;;;4.80;4.40;;;13.20;99.90;;;;;;5051926;28;20814;-62
2021/09/16 03:45:57;;;;;;;5.87;5.27;;;13.20;99.90;;;;;;5051887;28;20452;-59
2021/09/16 03:48:24;;;;;;;6.43;5.30;;;13.30;99.90;;;;;;5052081;28;20805;-61
2021/09/16 03:50:51;;;;;;;10.77;5.27;;;13.30;99.90;;;;;;5051674;28;20436;-59
2021/09/16 03:53:18;;;;;;;7.80;4.33;;;13.30;99.90;;;;;;5051981;28;20533;-62
2021/09/16 03:55:45;;;;;;;9.33;4.90;;;13.30;99.90;;;;;;5051774;28;20494;-62
2021/09/16 03:58:13;;;;;;;6.07;4.90;;;13.30;99.90;;;;;;5051820;28;20456;-62
2021/09/16 04:00:39;;;;;;;12.30;6.13;;;13.30;99.90;;;;;;5051488;28;20448;-62
2021/09/16 04:03:07;;;;;;;7.00;6.20;;;13.30;99.90;;;;;;5051655;28;20448;-62
2021/09/16 04:05:34;;;;;;;6.67;6.07;;;13.20;99.90;;;;;;5051469;28;20470;-62
2021/09/16 04:08:01;;;;;;;6.27;5.57;;;13.20;99.90;;;;;;5051669;28;20444;-61
2021/09/16 04:10:28;;;;;;;5.97;5.47;;;13.20;99.90;;;;;;5051217;28;20937;-62
2021/09/16 04:12:54;;;;;;;9.00;6.53;;;13.10;99.90;;;;;;5051345;28;20444;-62
2021/09/16 04:15:22;;;;;;;10.20;7.00;;;13.10;99.90;;;;;;5055040;28;20483;-65
2021/09/16 04:17:49;;;;;;;8.90;7.47;;;13.10;99.90;;;;;;5059131;28;20483;-64
2021/09/16 04:20:16;;;;;;;12.97;7.57;;;13.00;99.90;;;;;;5056374;28;20459;-65
2021/09/16 04:22:42;;;;;;;7.30;6.10;;;13.00;99.90;;;;;;5055845;28;20744;-65
2021/09/16 04:25:10;;;;;;;10.20;7.00;;;13.00;99.90;;;;;;5058254;28;20475;-63
2021/09/16 04:27:37;;;;;;;9.40;8.00;;;13.00;99.90;;;;;;5058929;28;20444;-65
2021/09/16 04:30:05;;;;;;;8.60;7.40;;;13.00;99.90;;;;;;5056913;28;20456;-65
2021/09/16 04:32:33;;;;;;;12.87;7.77;;;12.90;99.90;;;;;;5053054;28;20451;-64
2021/09/16 04:34:59;;;;;;;12.40;7.87;;;13.00;99.90;;;;;;5056894;28;20491;-64
2021/09/16 04:37:26;;;;;;;9.93;7.60;;;13.00;99.90;;;;;;5057013;28;20860;-65
2021/09/16 04:39:53;;;;;;;14.57;9.90;;;12.90;99.90;;;;;;5057104;28;20455;-66
2021/09/16 04:42:19;;;;;;;10.07;8.00;;;12.90;99.90;;;;;;5058151;28;20459;-63
2021/09/16 04:44:46;;;;;;;9.13;7.50;;;12.90;99.90;;;;;;5060965;28;20839;-65
2021/09/16 04:47:13;;;;;;;10.77;8.57;;;12.90;99.90;;;;;;5061445;28;20450;-65
2021/09/16 04:49:41;;;;;;;14.77;7.60;;;12.90;99.90;;;;;;5062282;28;20448;-65
2021/09/16 04:52:07;;;;;;;10.47;9.37;;;12.90;99.90;;;;;;5062788;28;20455;-65
2021/09/16 04:54:34;;;;;;;15.07;8.23;;;12.80;99.90;;;;;;5061732;28;20474;-63
2021/09/16 04:57:01;;;;;;;14.53;8.90;;;12.80;99.90;;;;;;5061077;28;20448;-65
2021/09/16 04:59:28;;;;;;;12.80;8.77;;;12.80;99.90;;;;;;5059495;28;20455;-66
2021/09/16 05:01:54;;;;;;;9.27;7.27;;;12.80;99.90;;;;;;5059649;28;20447;-63
2021/09/16 05:04:21;;;;;;;12.47;8.63;;;12.80;99.90;;;;;;5057563;28;20448;-65
2021/09/16 05:06:49;;;;;;;11.60;8.47;;;12.80;99.90;;;;;;5056579;28;20809;-66
2021/09/16 05:09:16;;;;;;;19.70;9.80;;;12.80;99.90;;;;;;5056450;28;20452;-66
2021/09/16 05:11:42;;;;;;;8.30;7.10;;;12.80;99.90;;;;;;5055174;28;20447;-65
2021/09/16 05:14:11;;;;;;;10.80;8.50;;;12.80;99.90;;;;;;5055558;28;20542;-65
2021/09/16 05:16:39;;;;;;;12.67;8.00;;;12.80;99.90;;;;;;5055504;28;20487;-65
2021/09/16 05:19:06;;;;;;;9.27;8.27;;;12.80;99.90;;;;;;5055490;28;20448;-66
2021/09/16 05:21:32;;;;;;;15.07;8.00;;;12.70;99.90;;;;;;5055121;28;20867;-66
2021/09/16 05:24:00;;;;;;;9.50;8.30;;;12.70;99.90;;;;;;5055344;28;20454;-62
2021/09/16 05:26:27;;;;;;;11.10;8.43;;;12.80;99.90;;;;;;5055546;28;20444;-65
2021/09/16 05:28:54;;;;;;;8.13;6.77;;;12.80;99.90;;;;;;5055335;28;20448;-65
2021/09/16 05:31:21;;;;;;;13.23;8.07;;;12.90;99.90;;;;;;5055048;28;20447;-65
2021/09/16 05:33:47;;;;;;;13.40;8.73;;;13.00;99.90;;;;;;5055696;28;20443;-65
2021/09/16 05:36:14;;;;;;;13.60;8.80;;;13.10;99.90;;;;;;5055423;28;20859;-65
2021/09/16 05:38:40;;;;;;;14.53;8.37;;;13.30;99.90;;;;;;5055443;28;20460;-65
2021/09/16 05:41:09;;;;;;;14.80;7.20;;;13.50;99.90;;;;;;5055507;28;20474;-65
2021/09/16 05:43:35;;;;;;;10.43;7.67;;;13.60;99.90;;;;;;5055479;28;20451;-65
2021/09/16 05:46:02;;;;;;;17.27;8.03;;;13.70;99.90;;;;;;5055548;28;20707;-65
2021/09/16 05:48:29;;;;;;;13.87;7.30;;;13.80;99.90;;;;;;5055607;28;20444;-64
2021/09/16 05:50:56;;;;;;;11.83;6.27;;;13.90;99.90;;;;;;5055624;28;20451;-65
2021/09/16 05:53:22;;;;;;;8.43;6.67;;;14.00;99.90;;;;;;5055103;28;20448;-63
2021/09/16 05:55:49;;;;;;;8.40;5.90;;;14.20;99.90;;;;;;5055574;28;21000;-65
2021/09/16 05:58:17;;;;;;;12.50;7.00;;;14.20;99.90;;;;;;5055629;28;20507;-65
2021/09/16 06:00:44;;;;;;;10.00;6.67;;;14.30;99.90;;;;;;5055659;28;20448;-65
2021/09/16 06:03:10;;;;;;;7.50;6.73;;;14.30;99.90;;;;;;5054738;28;20471;-65
2021/09/16 06:05:37;;;;;;;6.63;6.03;;;14.40;99.90;;;;;;5055010;28;20456;-63
2021/09/16 06:08:04;;;;;;;8.20;5.80;;;14.50;99.90;;;;;;5055237;28;20448;-65
2021/09/16 06:10:31;;;;;;;6.60;6.00;;;14.70;99.90;;;;;;5055181;28;20440;-64
2021/09/16 06:12:57;;;;;;;13.17;7.40;;;14.80;99.90;;;;;;5055253;28;20537;-64
2021/09/16 06:15:25;;;;;;;10.20;6.93;;;14.90;99.90;;;;;;5054948;28;20495;-65
2021/09/16 06:17:52;;;;;;;13.30;8.20;;;15.00;99.90;;;;;;5054883;28;20445;-65
2021/09/16 06:20:19;;;;;;;8.37;7.03;;;15.10;99.90;;;;;;5054962;28;20833;-65
2021/09/16 06:22:46;;;;;;;10.20;8.73;;;15.10;99.90;;;;;;5054538;28;20456;-63
2021/09/16 06:25:14;;;;;;;11.40;8.20;;;15.20;99.90;;;;;;5055224;28;20594;-65
2021/09/16 06:27:41;;;;;;;9.07;7.53;;;15.30;99.90;;;;;;5055354;28;20797;-65
2021/09/16 06:30:09;;;;;;;12.77;8.10;;;15.30;99.90;;;;;;5055312;28;20444;-64
2021/09/16 06:32:38;;;;;;;13.90;7.33;;;15.40;99.90;;;;;;5054832;28;20531;-64
2021/09/16 06:35:05;;;;;;;9.53;8.63;;;15.50;99.90;;;;;;5054927;28;20463;-65
2021/09/16 06:37:32;;;;;;;18.47;8.83;;;15.60;99.90;;;;;;5054958;28;20448;-65
2021/09/16 06:39:59;;;;;;;9.57;8.27;;;15.60;99.90;;;;;;5055284;28;20444;-63
2021/09/16 06:42:25;;;;;;;11.17;9.80;;;15.70;99.90;;;;;;5054703;28;20808;-66
2021/09/16 06:44:52;;;;;;;11.80;10.20;;;15.70;99.90;;;;;;5054861;28;20468;-65
2021/09/16 06:47:19;;;;;;;11.23;10.03;;;15.80;99.90;;;;;;5054996;28;20432;-65
2021/09/16 06:49:48;;;;;;;12.63;9.03;;;15.90;99.90;;;;;;5054507;28;20436;-65
2021/09/16 06:52:15;;;;;;;11.73;10.70;;;15.90;99.90;;;;;;5054146;28;20444;-65
2021/09/16 06:54:42;;;;;;;11.83;10.70;;;16.00;99.90;;;;;;5054349;28;20990;-65
2021/09/16 06:57:09;;;;;;;18.60;12.10;;;16.10;99.90;;;;;;5054614;28;20480;-65
2021/09/16 06:59:36;;;;;;;12.00;10.83;;;16.20;99.90;;;;;;5054418;28;20452;-65
2021/09/16 07:02:03;;;;;;;10.30;9.50;;;16.20;99.90;;;;;;5054326;28;20527;-65
2021/09/16 07:04:30;;;;;;;12.33;11.20;;;16.30;99.90;;;;;;5053593;28;20464;-65
2021/09/16 07:07:03;;;;;;;13.27;12.07;;;16.30;99.90;;;;;;5053641;28;20471;-65
2021/09/16 07:09:30;;;;;;;13.10;12.07;;;16.30;99.90;;;;;;5054171;28;20794;-65
2021/09/16 07:11:56;;;;;;;12.93;11.80;;;16.40;99.90;;;;;;5053886;28;20471;-65
2021/09/16 07:14:24;;;;;;;13.53;11.73;;;16.40;99.90;;;;;;5053879;28;20480;-65
2021/09/16 07:16:51;;;;;;;13.37;12.23;;;16.50;99.90;;;;;;5054084;28;20479;-65
2021/09/16 07:19:18;;;;;;;12.80;11.50;;;16.70;99.90;;;;;;5054065;28;20451;-65
2021/09/16 07:21:45;;;;;;;13.90;12.60;;;16.90;99.90;;;;;;5053552;28;20819;-65
2021/09/16 07:24:14;;;;;;;13.93;12.60;;;17.10;99.90;;;;;;5054190;28;20448;-65
2021/09/16 07:26:41;;;;;;;12.20;11.20;;;17.20;99.90;;;;;;5054220;28;20861;-65
2021/09/16 07:29:08;;;;;;;13.07;11.70;;;17.50;99.90;;;;;;5054262;28;20462;-66
2021/09/16 07:31:35;;;;;;;15.20;14.07;;;17.50;99.90;;;;;;5053870;28;20440;-64
2021/09/16 07:34:02;;;;;;;14.40;13.30;;;17.60;99.90;;;;;;5054169;28;20444;-65
2021/09/16 07:36:29;;;;;;;13.00;11.90;;;17.70;99.90;;;;;;5053926;28;20476;-65
2021/09/16 07:38:56;;;;;;;15.90;14.70;;;17.60;99.90;;;;;;5055609;28;20448;-65
2021/09/16 07:41:24;;;;;;;13.63;12.83;;;17.60;99.90;;;;;;5056938;28;20960;-65
2021/09/16 07:43:50;;;;;;;15.03;13.97;;;17.80;99.90;;;;;;5058022;28;20449;-65
2021/09/16 07:46:17;;;;;;;15.30;14.17;;;18.00;99.90;;;;;;5058228;28;20456;-63
2021/09/16 07:48:44;;;;;;;14.07;13.10;;;18.10;99.90;;;;;;5057928;28;20451;-64
2021/09/16 07:51:10;;;;;;;16.00;14.80;;;18.20;99.90;;;;;;5054247;28;20460;-65
2021/09/16 07:53:37;;;;;;;15.20;14.40;;;18.20;99.90;;;;;;5054073;28;20463;-65
2021/09/16 07:56:04;;;;;;;15.10;14.20;;;18.30;99.90;;;;;;5053895;28;20480;-64
2021/09/16 07:58:32;;;;;;;15.90;14.43;;;18.50;99.90;;;;;;5055533;28;20471;-66
2021/09/16 08:00:59;;;;;;;15.90;14.47;;;18.60;99.90;;;;;;5055160;28;20460;-65
2021/09/16 08:03:26;;;;;;;17.67;16.27;;;18.60;99.90;;;;;;5055207;28;20452;-63
2021/09/16 08:05:52;;;;;;;16.73;14.93;;;18.70;99.90;;;;;;5055163;28;20992;-64
2021/09/16 08:08:19;;;;;;;14.90;13.90;;;18.90;99.90;;;;;;5056490;28;20515;-63
2021/09/16 08:10:46;;;;;;;15.27;14.30;;;19.10;99.90;;;;;;5055144;28;20455;-65
2021/09/16 08:13:12;;;;;;;14.80;13.87;;;19.10;99.90;;;;;;5054796;28;20448;-63
2021/09/16 08:15:41;;;;;;;15.53;14.63;;;19.20;99.90;;;;;;5054512;28;20483;-63
2021/09/16 08:18:08;;;;;;;15.07;14.13;;;19.20;99.90;;;;;;5054863;28;20518;-64
2021/09/16 08:20:39;;;;;;;15.13;14.23;;;19.20;99.90;;;;;;5053718;28;20492;-64
2021/09/16 08:23:06;;;;;;;16.50;15.47;;;19.50;99.90;;;;;;5054577;28;20444;-64
2021/09/16 08:25:34;;;;;;;16.37;15.37;;;19.60;99.90;;;;;;5054702;28;20471;-64
2021/09/16 08:28:01;;;;;;;16.40;15.40;;;19.80;99.90;;;;;;5054992;28;20436;-64
2021/09/16 08:30:28;;;;;;;16.20;14.70;;;19.90;99.90;;;;;;5054876;28;20445;-64
2021/09/16 08:32:56;;;;;;;16.17;14.97;;;20.10;99.90;;;;;;5054545;28;20902;-64
2021/09/16 08:35:23;;;;;;;14.90;14.00;;;19.70;99.90;;;;;;5055034;28;20464;-65
2021/09/16 08:37:50;;;;;;;16.13;15.00;;;19.60;99.90;;;;;;5054715;28;20480;-64
2021/09/16 08:40:17;;;;;;;15.93;15.10;;;19.70;99.90;;;;;;5054497;28;20814;-65
2021/09/16 08:42:45;;;;;;;14.93;14.10;;;20.10;99.90;;;;;;5053792;28;20444;-64
2021/09/16 08:45:15;;;;;;;15.83;15.07;;;20.10;99.90;;;;;;5052913;28;20543;-65
2021/09/16 08:47:42;;;;;;;15.20;14.60;;;20.20;99.90;;;;;;5053088;28;20961;-63
2021/09/16 08:50:12;;;;;;;17.30;16.13;;;19.90;99.90;;;;;;5054370;28;20448;-65
2021/09/16 08:52:40;;;;;;;15.20;14.40;;;19.90;99.90;;;;;;5054382;28;20440;-63
2021/09/16 08:55:08;;;;;;;17.20;16.30;;;19.80;99.90;;;;;;5054355;28;20471;-65
2021/09/16 08:57:37;;;;;;;15.87;15.17;;;19.70;99.90;;;;;;5054743;28;20483;-64
2021/09/16 09:00:06;;;;;;;17.13;15.87;;;19.80;99.90;;;;;;5054335;28;20449;-65
2021/09/16 09:02:34;;;;;;;16.10;15.30;;;19.70;99.90;;;;;;5053759;28;20470;-64
2021/09/16 09:05:01;;;;;;;16.70;15.80;;;19.80;99.90;;;;;;5053549;28;20460;-63
2021/09/16 09:07:38;;;;;;;15.73;14.77;;;19.70;99.90;;;;;;5053056;28;20448;-64
2021/09/16 09:10:06;;;;;;;16.27;15.17;;;19.50;99.90;;;;;;5052879;28;20871;-63
2021/09/16 09:12:36;;;;;;;16.03;15.27;;;19.50;99.90;;;;;;5052520;28;20444;-63
2021/09/16 09:15:05;;;;;;;15.97;15.10;;;19.40;99.90;;;;;;5052991;28;20479;-65
2021/09/16 09:17:33;;;;;;;15.50;14.70;;;19.40;99.90;;;;;;5053625;28;20486;-64
2021/09/16 09:20:08;;;;;;;15.13;14.43;;;19.50;99.90;;;;;;5053611;28;20454;-65
2021/09/16 09:22:39;;;;;;;15.17;14.27;;;19.60;99.90;;;;;;5053211;28;20439;-65
2021/09/16 09:25:09;;;;;;;15.90;15.20;;;19.70;99.90;;;;;;5053266;28;20506;-65
2021/09/16 09:27:39;;;;;;;15.20;14.60;;;19.80;99.90;;;;;;5053728;28;20443;-63
2021/09/16 09:30:12;;;;;;;15.50;14.70;;;20.10;99.90;;;;;;5057817;28;20463;-64
2021/09/16 09:32:56;;;;;;;15.50;14.60;;;20.30;99.90;;;;;;5058250;28;20551;-65
2021/09/16 09:35:29;;;;;;;15.33;14.63;;;20.50;99.90;;;;;;5057166;28;20475;-65
2021/09/16 09:37:58;;;;;;;16.07;15.17;;;20.30;99.90;;;;;;5057395;28;20506;-65
2021/09/16 09:40:26;;;;;;;15.80;15.00;;;20.60;99.90;;;;;;5058564;28;20481;-64
2021/09/16 09:42:53;;;;;;;16.80;15.97;;;20.60;99.90;;;;;;5058431;28;20841;-64
2021/09/16 09:45:20;;;;;;;17.63;16.50;;;20.80;99.90;;;;;;5057646;28;20461;-65
2021/09/16 09:47:48;;;;;;;16.80;16.00;;;20.80;99.90;;;;;;5057932;28;20443;-63
2021/09/16 09:50:21;;;;;;;15.77;15.00;;;21.10;99.90;;;;;;5058261;28;20471;-65
2021/09/16 09:52:48;;;;;;;19.03;18.13;;;21.30;99.90;;;;;;5058281;28;20447;-65
2021/09/16 09:55:19;;;;;;;15.80;15.10;;;21.40;99.90;;;;;;5057807;28;20467;-65
2021/09/16 09:57:46;;;;;;;18.40;17.40;;;21.20;99.90;;;;;;5058399;28;20482;-65
2021/09/16 10:00:15;;;;;;;17.47;16.47;;;20.80;99.90;;;;;;5057049;28;20440;-64
2021/09/16 10:02:49;;;;;;;16.47;15.83;;;20.40;99.90;;;;;;5056671;28;20448;-65
2021/09/16 10:05:21;;;;;;;16.20;15.60;;;20.70;99.90;;;;;;5057596;28;20452;-66
2021/09/16 10:07:49;;;;;;;16.40;15.70;;;21.30;99.90;;;;;;5065716;28;20486;-64
2021/09/16 10:10:17;;;;;;;16.40;15.77;;;21.60;99.90;;;;;;5068486;28;20447;-63
2021/09/16 10:12:46;;;;;;;17.03;16.03;;;22.20;99.90;;;;;;5070725;28;20511;-64
2021/09/16 10:15:15;;;;;;;16.40;15.80;;;22.50;99.90;;;;;;5067145;28;20662;-59
2021/09/16 10:17:42;;;;;;;16.37;15.70;;;22.60;99.90;;;;;;5053652;28;20575;-62
2021/09/16 10:20:11;;;;;;;15.63;15.13;;;22.50;99.90;;;;;;5053431;28;20984;-58
2021/09/16 10:22:38;;;;;;;15.20;14.70;;;22.00;99.90;;;;;;5053560;28;20852;-60
2021/09/16 10:25:07;;;;;;;16.13;15.53;;;21.80;99.90;;;;;;5053354;28;20471;-58
2021/09/16 10:27:41;;;;;;;15.30;14.70;;;22.00;99.90;;;;;;5053456;28;20808;-61
2021/09/16 10:30:31;;;;;;;16.03;15.40;;;22.60;99.90;;;;;;5053528;28;20469;-58
2021/09/16 10:33:04;;;;;;;15.97;15.47;;;22.70;99.90;;;;;;5053106;28;20802;-59
2021/09/16 10:35:32;;;;;;;16.30;15.50;;;22.20;99.90;;;;;;5053425;28;20464;-57
2021/09/16 10:38:17;;;;;;;16.63;16.03;;;21.90;99.90;;;;;;5053203;28;20483;-60
2021/09/16 10:40:45;;;;;;;16.27;15.47;;;22.10;99.90;;;;;;5051995;28;20926;-63
2021/09/16 10:43:21;;;;;;;16.17;15.37;;;22.30;99.90;;;;;;5052958;28;20444;-62
2021/09/16 10:45:48;;;;;;;17.50;16.50;;;22.10;99.40;;;;;;5053255;28;20504;-60
2021/09/16 10:48:32;;;;;;;19.33;18.50;;;22.10;99.70;;;;;;5053034;28;20460;-60
2021/09/16 10:51:02;;;;;;;18.20;17.50;;;22.50;99.90;;;;;;5052977;28;20479;-61
2021/09/16 10:53:40;;;;;;;17.70;17.00;;;23.30;99.30;;;;;;5053043;28;20443;-60
2021/09/16 10:56:23;;;;;;;18.37;17.60;;;23.80;97.20;;;;;;5052978;28;20971;-55
2021/09/16 10:58:54;;;;;;;19.23;18.33;;;24.10;92.60;;;;;;5052587;28;20561;-63
2021/09/16 11:01:55;;;;;;;18.80;18.10;;;24.50;91.00;;;;;;5052832;28;20440;-56
2021/09/16 11:04:23;;;;;;;19.37;18.57;;;24.50;90.00;;;;;;5052880;28;20447;-62
2021/09/16 11:06:50;;;;;;;19.27;18.43;;;25.10;87.20;;;;;;5052594;28;20448;-60
2021/09/16 11:09:26;;;;;;;19.70;18.83;;;25.20;84.20;;;;;;5052935;28;20447;-60
2021/09/16 11:11:55;;;;;;;19.97;19.27;;;25.50;84.10;;;;;;5052455;28;20448;-60
2021/09/16 11:14:32;;;;;;;19.60;18.80;;;26.00;79.80;;;;;;5052379;28;20507;-59
2021/09/16 11:17:00;;;;;;;20.73;19.83;;;25.30;75.80;;;;;;5052472;28;20486;-60
2021/09/16 11:19:27;;;;;;;21.00;20.00;;;26.00;75.60;;;;;;5052485;28;20942;-60
2021/09/16 11:22:05;;;;;;;19.70;18.73;;;26.10;73.90;;;;;;5052270;28;20813;-60
2021/09/16 11:24:34;;;;;;;21.03;20.13;;;26.20;75.10;;;;;;5052325;28;20456;-64
2021/09/16 11:27:01;;;;;;;20.20;19.30;;;26.00;73.70;;;;;;5052450;28;20803;-59
2021/09/16 11:29:41;;;;;;;20.47;19.57;;;25.40;73.50;;;;;;5052495;28;20444;-59
2021/09/16 11:32:09;;;;;;;20.77;19.90;;;24.90;76.60;;;;;;5052106;28;20452;-60
2021/09/16 11:34:36;;;;;;;19.80;19.10;;;24.20;79.60;;;;;;5052041;28;20468;-58
2021/09/16 11:37:09;;;;;;;20.63;19.73;;;24.00;82.90;;;;;;5052094;28;20981;-64
2021/09/16 11:39:36;;;;;;;20.93;20.03;;;23.90;86.30;;;;;;5052058;28;20480;-60
2021/09/16 11:42:12;;;;;;;19.83;19.13;;;27.30;78.00;;;;;;5051742;28;20455;-62
2021/09/16 11:45:02;;;;;;;20.37;19.47;;;28.30;64.70;;;;;;5051981;28;20463;-59
2021/09/16 11:47:29;;;;;;;20.50;19.70;;;28.10;63.30;;;;;;5052193;28;20444;-57
2021/09/16 11:49:56;;;;;;;20.93;20.20;;;27.20;62.80;;;;;;5051834;28;20443;-62
2021/09/16 11:52:24;;;;;;;20.23;19.40;;;26.00;65.80;;;;;;5051356;28;20440;-59
2021/09/16 11:55:05;;;;;;;20.30;19.40;;;25.60;68.80;;;;;;5051793;28;20551;-60
2021/09/16 11:57:32;;;;;;;22.00;20.63;;;25.10;69.40;;;;;;5051757;28;20506;-63
2021/09/16 11:59:58;;;;;;;20.07;19.23;;;25.40;71.60;;;;;;5051891;28;20902;-58
2021/09/16 12:02:46;;;;;;;20.17;19.40;;;25.00;70.20;;;;;;5051653;28;20436;-63
2021/09/16 12:05:12;;;;;;;21.80;20.87;;;24.60;71.70;;;;;;5051496;28;20472;-58
2021/09/16 12:07:42;;;;;;;20.13;19.40;;;24.20;74.40;;;;;;5051500;28;20440;-58
2021/09/16 12:10:09;;;;;;;21.00;20.00;;;23.80;75.70;;;;;;5051589;28;20455;-60
2021/09/16 12:12:40;;;;;;;20.47;19.57;;;23.90;76.90;;;;;;5051533;28;20474;-58
2021/09/16 12:15:09;;;;;;;20.30;19.43;;;24.00;77.40;;;;;;5051418;28;20476;-62
2021/09/16 12:17:38;;;;;;;20.07;19.40;;;24.00;76.40;;;;;;5051367;28;20976;-58
2021/09/16 12:20:05;;;;;;;19.80;19.10;;;24.00;76.80;;;;;;5051453;28;20455;-63
2021/09/16 12:22:32;;;;;;;19.10;18.27;;;23.60;78.70;;;;;;5051194;28;20448;-61
2021/09/16 12:25:01;;;;;;;18.67;17.83;;;23.00;80.80;;;;;;5051264;28;20464;-63
2021/09/16 12:27:28;;;;;;;19.97;19.00;;;22.70;85.10;;;;;;5051530;28;20509;-59
2021/09/16 12:29:55;;;;;;;19.30;18.60;;;22.50;88.40;;;;;;5051384;28;20448;-57
2021/09/16 12:32:31;;;;;;;19.23;18.53;;;23.00;88.70;;;;;;5051173;28;20448;-60
2021/09/16 12:34:59;;;;;;;19.20;18.50;;;23.50;87.60;;;;;;5051086;28;20968;-60
2021/09/16 12:37:32;;;;;;;19.73;18.73;;;25.60;84.40;;;;;;5051245;28;20958;-59